sensor_id;sensor_type;location;lat;lon;timestamp;pressure;altitude;pressure_sealevel;temperature
29423;BMP180;16399;51.686;8.684;2022-10-26T00:01:04;99898.00;;;10.30
29423;BMP180;16399;51.686;8.684;2022-10-26T00:04:07;99892.00;;;10.20
29423;BMP180;16399;51.686;8.684;2022-10-26T00:07:09;99896.00;;;10.30
29423;BMP180;16399;51.686;8.684;2022-10-26T00:10:11;99893.00;;;10.30
29423;BMP180;16399;51.686;8.684;2022-10-26T00:13:13;99888.00;;;10.30
29423;BMP180;16399;51.686;8.684;2022-10-26T00:16:24;99890.00;;;10.30
29423;BMP180;16399;51.686;8.684;2022-10-26T00:19:27;99888.00;;;10.30
29423;BMP180;16399;51.686;8.684;2022-10-26T00:22:29;99892.00;;;10.30
29423;BMP180;16399;51.686;8.684;2022-10-26T00:25:31;99884.00;;;10.30
29423;BMP180;16399;51.686;8.684;2022-10-26T00:28:34;99877.00;;;10.30
29423;BMP180;16399;51.686;8.684;2022-10-26T00:31:36;99884.00;;;10.30
29423;BMP180;16399;51.686;8.684;2022-10-26T00:34:39;99884.00;;;10.40
29423;BMP180;16399;51.686;8.684;2022-10-26T00:37:41;99893.00;;;10.40
29423;BMP180;16399;51.686;8.684;2022-10-26T00:40:44;99887.00;;;10.40
29423;BMP180;16399;51.686;8.684;2022-10-26T00:43:46;99881.00;;;10.40
29423;BMP180;16399;51.686;8.684;2022-10-26T00:46:49;99884.00;;;10.40
29423;BMP180;16399;51.686;8.684;2022-10-26T00:49:52;99879.00;;;10.40
29423;BMP180;16399;51.686;8.684;2022-10-26T00:52:58;99880.00;;;10.40
29423;BMP180;16399;51.686;8.684;2022-10-26T00:56:01;99879.00;;;10.40
29423;BMP180;16399;51.686;8.684;2022-10-26T00:59:07;99886.00;;;10.40
29423;BMP180;16399;51.686;8.684;2022-10-26T01:02:10;99883.00;;;10.40
29423;BMP180;16399;51.686;8.684;2022-10-26T01:05:14;99875.00;;;10.40
29423;BMP180;16399;51.686;8.684;2022-10-26T01:08:17;99875.00;;;10.40
29423;BMP180;16399;51.686;8.684;2022-10-26T01:11:20;99872.00;;;10.40
29423;BMP180;16399;51.686;8.684;2022-10-26T01:14:24;99871.00;;;10.40
29423;BMP180;16399;51.686;8.684;2022-10-26T01:17:50;99871.00;;;10.40
29423;BMP180;16399;51.686;8.684;2022-10-26T01:21:02;99872.00;;;10.40
29423;BMP180;16399;51.686;8.684;2022-10-26T01:30:43;99853.00;;;10.40
29423;BMP180;16399;51.686;8.684;2022-10-26T01:33:54;99843.00;;;10.50
29423;BMP180;16399;51.686;8.684;2022-10-26T01:36:55;99842.00;;;10.50
29423;BMP180;16399;51.686;8.684;2022-10-26T01:40:08;99838.00;;;10.50
29423;BMP180;16399;51.686;8.684;2022-10-26T01:43:11;99837.00;;;10.50
29423;BMP180;16399;51.686;8.684;2022-10-26T01:46:16;99829.00;;;10.50
29423;BMP180;16399;51.686;8.684;2022-10-26T01:49:21;99826.00;;;10.60
29423;BMP180;16399;51.686;8.684;2022-10-26T01:52:24;99824.00;;;10.60
29423;BMP180;16399;51.686;8.684;2022-10-26T02:05:55;99822.00;;;10.70
29423;BMP180;16399;51.686;8.684;2022-10-26T02:09:08;99810.00;;;10.80
29423;BMP180;16399;51.686;8.684;2022-10-26T02:19:01;99799.00;;;10.80
29423;BMP180;16399;51.686;8.684;2022-10-26T02:22:33;99791.00;;;10.80
29423;BMP180;16399;51.686;8.684;2022-10-26T02:25:33;99786.00;;;10.90
29423;BMP180;16399;51.686;8.684;2022-10-26T02:28:34;99781.00;;;10.90
29423;BMP180;16399;51.686;8.684;2022-10-26T02:31:38;99777.00;;;10.90
29423;BMP180;16399;51.686;8.684;2022-10-26T02:34:43;99775.00;;;10.90
29423;BMP180;16399;51.686;8.684;2022-10-26T02:37:47;99759.00;;;10.90
29423;BMP180;16399;51.686;8.684;2022-10-26T02:40:51;99763.00;;;10.90
29423;BMP180;16399;51.686;8.684;2022-10-26T02:44:01;99757.00;;;10.90
29423;BMP180;16399;51.686;8.684;2022-10-26T02:47:03;99760.00;;;10.90
29423;BMP180;16399;51.686;8.684;2022-10-26T02:50:06;99765.00;;;10.90
29423;BMP180;16399;51.686;8.684;2022-10-26T02:53:17;99753.00;;;10.90
29423;BMP180;16399;51.686;8.684;2022-10-26T02:56:34;99752.00;;;10.90
29423;BMP180;16399;51.686;8.684;2022-10-26T02:59:39;99743.00;;;11.00
29423;BMP180;16399;51.686;8.684;2022-10-26T03:02:43;99746.00;;;11.00
29423;BMP180;16399;51.686;8.684;2022-10-26T03:05:46;99746.00;;;11.00
29423;BMP180;16399;51.686;8.684;2022-10-26T03:08:48;99740.00;;;11.00
29423;BMP180;16399;51.686;8.684;2022-10-26T03:11:51;99737.00;;;11.10
29423;BMP180;16399;51.686;8.684;2022-10-26T03:14:53;99737.00;;;11.10
29423;BMP180;16399;51.686;8.684;2022-10-26T03:17:56;99738.00;;;11.20
29423;BMP180;16399;51.686;8.684;2022-10-26T03:20:58;99727.00;;;11.20
29423;BMP180;16399;51.686;8.684;2022-10-26T03:24:01;99733.00;;;11.20
29423;BMP180;16399;51.686;8.684;2022-10-26T03:27:03;99740.00;;;11.30
29423;BMP180;16399;51.686;8.684;2022-10-26T03:30:06;99739.00;;;11.30
29423;BMP180;16399;51.686;8.684;2022-10-26T03:33:08;99737.00;;;11.40
29423;BMP180;16399;51.686;8.684;2022-10-26T03:36:11;99734.00;;;11.40
29423;BMP180;16399;51.686;8.684;2022-10-26T03:39:13;99737.00;;;11.50
29423;BMP180;16399;51.686;8.684;2022-10-26T03:42:15;99735.00;;;11.50
29423;BMP180;16399;51.686;8.684;2022-10-26T03:45:18;99727.00;;;11.60
29423;BMP180;16399;51.686;8.684;2022-10-26T03:48:20;99728.00;;;11.60
29423;BMP180;16399;51.686;8.684;2022-10-26T03:51:22;99727.00;;;11.60
29423;BMP180;16399;51.686;8.684;2022-10-26T03:54:24;99731.00;;;11.70
29423;BMP180;16399;51.686;8.684;2022-10-26T03:57:27;99725.00;;;11.70
29423;BMP180;16399;51.686;8.684;2022-10-26T04:00:29;99729.00;;;11.70
29423;BMP180;16399;51.686;8.684;2022-10-26T04:03:31;99729.00;;;11.70
29423;BMP180;16399;51.686;8.684;2022-10-26T04:06:34;99723.00;;;11.80
29423;BMP180;16399;51.686;8.684;2022-10-26T04:09:36;99719.00;;;11.80
29423;BMP180;16399;51.686;8.684;2022-10-26T04:12:38;99718.00;;;11.80
29423;BMP180;16399;51.686;8.684;2022-10-26T04:15:41;99724.00;;;11.80
29423;BMP180;16399;51.686;8.684;2022-10-26T04:18:43;99722.00;;;11.90
29423;BMP180;16399;51.686;8.684;2022-10-26T04:21:46;99718.00;;;11.90
29423;BMP180;16399;51.686;8.684;2022-10-26T04:24:48;99718.00;;;11.90
29423;BMP180;16399;51.686;8.684;2022-10-26T04:27:50;99718.00;;;11.90
29423;BMP180;16399;51.686;8.684;2022-10-26T04:30:53;99721.00;;;11.90
29423;BMP180;16399;51.686;8.684;2022-10-26T04:33:55;99720.00;;;11.90
29423;BMP180;16399;51.686;8.684;2022-10-26T04:36:57;99717.00;;;11.90
29423;BMP180;16399;51.686;8.684;2022-10-26T04:40:00;99728.00;;;11.90
29423;BMP180;16399;51.686;8.684;2022-10-26T04:43:02;99721.00;;;11.90
29423;BMP180;16399;51.686;8.684;2022-10-26T04:46:05;99714.00;;;11.90
29423;BMP180;16399;51.686;8.684;2022-10-26T04:49:07;99716.00;;;12.00
29423;BMP180;16399;51.686;8.684;2022-10-26T04:52:09;99725.00;;;12.00
29423;BMP180;16399;51.686;8.684;2022-10-26T04:55:11;99715.00;;;12.00
29423;BMP180;16399;51.686;8.684;2022-10-26T04:58:14;99714.00;;;12.00
29423;BMP180;16399;51.686;8.684;2022-10-26T05:01:16;99717.00;;;12.00
29423;BMP180;16399;51.686;8.684;2022-10-26T05:04:19;99718.00;;;12.10
29423;BMP180;16399;51.686;8.684;2022-10-26T05:07:21;99715.00;;;12.10
29423;BMP180;16399;51.686;8.684;2022-10-26T05:10:24;99713.00;;;12.10
29423;BMP180;16399;51.686;8.684;2022-10-26T05:13:27;99714.00;;;12.10
29423;BMP180;16399;51.686;8.684;2022-10-26T05:16:29;99716.00;;;12.20
29423;BMP180;16399;51.686;8.684;2022-10-26T05:19:31;99710.00;;;12.20
29423;BMP180;16399;51.686;8.684;2022-10-26T05:22:34;99711.00;;;12.30
29423;BMP180;16399;51.686;8.684;2022-10-26T05:25:36;99721.00;;;12.30
29423;BMP180;16399;51.686;8.684;2022-10-26T05:28:39;99726.00;;;12.30
29423;BMP180;16399;51.686;8.684;2022-10-26T05:31:41;99718.00;;;12.40
29423;BMP180;16399;51.686;8.684;2022-10-26T05:34:44;99716.00;;;12.40
29423;BMP180;16399;51.686;8.684;2022-10-26T05:37:46;99724.00;;;12.40
29423;BMP180;16399;51.686;8.684;2022-10-26T05:40:49;99714.00;;;12.50
29423;BMP180;16399;51.686;8.684;2022-10-26T05:43:52;99708.00;;;12.50
29423;BMP180;16399;51.686;8.684;2022-10-26T05:46:54;99723.00;;;12.60
29423;BMP180;16399;51.686;8.684;2022-10-26T05:49:56;99726.00;;;12.60
29423;BMP180;16399;51.686;8.684;2022-10-26T05:52:59;99731.00;;;12.60
29423;BMP180;16399;51.686;8.684;2022-10-26T05:56:01;99708.00;;;12.60
29423;BMP180;16399;51.686;8.684;2022-10-26T05:59:14;99733.00;;;12.70
29423;BMP180;16399;51.686;8.684;2022-10-26T06:08:56;99752.00;;;12.70
29423;BMP180;16399;51.686;8.684;2022-10-26T06:11:58;99754.00;;;12.70
29423;BMP180;16399;51.686;8.684;2022-10-26T06:15:02;99762.00;;;12.70
29423;BMP180;16399;51.686;8.684;2022-10-26T06:31:27;99766.00;;;12.80
29423;BMP180;16399;51.686;8.684;2022-10-26T06:34:32;99759.00;;;12.90
29423;BMP180;16399;51.686;8.684;2022-10-26T06:37:35;99751.00;;;12.90
29423;BMP180;16399;51.686;8.684;2022-10-26T06:40:41;99758.00;;;12.90
29423;BMP180;16399;51.686;8.684;2022-10-26T06:43:43;99770.00;;;13.00
29423;BMP180;16399;51.686;8.684;2022-10-26T06:47:03;99768.00;;;13.10
29423;BMP180;16399;51.686;8.684;2022-10-26T06:53:30;99770.00;;;13.20
29423;BMP180;16399;51.686;8.684;2022-10-26T06:56:32;99772.00;;;13.30
29423;BMP180;16399;51.686;8.684;2022-10-26T06:59:56;99777.00;;;13.30
29423;BMP180;16399;51.686;8.684;2022-10-26T07:03:00;99773.00;;;13.40
29423;BMP180;16399;51.686;8.684;2022-10-26T07:06:03;99774.00;;;13.40
29423;BMP180;16399;51.686;8.684;2022-10-26T07:09:06;99774.00;;;13.40
29423;BMP180;16399;51.686;8.684;2022-10-26T07:12:08;99781.00;;;13.50
29423;BMP180;16399;51.686;8.684;2022-10-26T07:15:10;99779.00;;;13.50
29423;BMP180;16399;51.686;8.684;2022-10-26T07:18:13;99780.00;;;13.50
29423;BMP180;16399;51.686;8.684;2022-10-26T07:21:15;99792.00;;;13.50
29423;BMP180;16399;51.686;8.684;2022-10-26T07:24:17;99785.00;;;13.50
29423;BMP180;16399;51.686;8.684;2022-10-26T07:27:19;99795.00;;;13.60
29423;BMP180;16399;51.686;8.684;2022-10-26T07:30:24;99786.00;;;13.60
29423;BMP180;16399;51.686;8.684;2022-10-26T07:33:26;99788.00;;;13.60
29423;BMP180;16399;51.686;8.684;2022-10-26T07:36:29;99800.00;;;13.70
29423;BMP180;16399;51.686;8.684;2022-10-26T07:39:31;99794.00;;;13.70
29423;BMP180;16399;51.686;8.684;2022-10-26T07:42:33;99803.00;;;13.70
29423;BMP180;16399;51.686;8.684;2022-10-26T07:45:37;99793.00;;;13.80
29423;BMP180;16399;51.686;8.684;2022-10-26T07:48:41;99788.00;;;13.80
29423;BMP180;16399;51.686;8.684;2022-10-26T07:51:43;99786.00;;;13.90
29423;BMP180;16399;51.686;8.684;2022-10-26T07:54:46;99784.00;;;13.90
29423;BMP180;16399;51.686;8.684;2022-10-26T07:57:48;99785.00;;;14.00
29423;BMP180;16399;51.686;8.684;2022-10-26T08:00:52;99785.00;;;14.10
29423;BMP180;16399;51.686;8.684;2022-10-26T08:03:55;99788.00;;;14.20
29423;BMP180;16399;51.686;8.684;2022-10-26T08:06:57;99777.00;;;14.30
29423;BMP180;16399;51.686;8.684;2022-10-26T08:09:59;99769.00;;;14.30
29423;BMP180;16399;51.686;8.684;2022-10-26T08:13:02;99777.00;;;14.40
29423;BMP180;16399;51.686;8.684;2022-10-26T08:16:05;99780.00;;;14.50
29423;BMP180;16399;51.686;8.684;2022-10-26T08:19:07;99772.00;;;14.50
29423;BMP180;16399;51.686;8.684;2022-10-26T08:22:10;99777.00;;;14.50
29423;BMP180;16399;51.686;8.684;2022-10-26T08:25:12;99772.00;;;14.50
29423;BMP180;16399;51.686;8.684;2022-10-26T08:28:14;99771.00;;;14.50
29423;BMP180;16399;51.686;8.684;2022-10-26T08:31:17;99774.00;;;14.60
29423;BMP180;16399;51.686;8.684;2022-10-26T08:34:19;99774.00;;;14.60
29423;BMP180;16399;51.686;8.684;2022-10-26T08:37:21;99775.00;;;14.70
29423;BMP180;16399;51.686;8.684;2022-10-26T08:40:27;99783.00;;;14.70
29423;BMP180;16399;51.686;8.684;2022-10-26T08:43:41;99774.00;;;14.80
29423;BMP180;16399;51.686;8.684;2022-10-26T08:46:45;99773.00;;;14.80
29423;BMP180;16399;51.686;8.684;2022-10-26T08:53:29;99771.00;;;14.90
29423;BMP180;16399;51.686;8.684;2022-10-26T08:56:33;99767.00;;;15.00
29423;BMP180;16399;51.686;8.684;2022-10-26T08:59:46;99765.00;;;15.00
29423;BMP180;16399;51.686;8.684;2022-10-26T09:02:50;99762.00;;;15.00
29423;BMP180;16399;51.686;8.684;2022-10-26T09:06:16;99775.00;;;15.00
29423;BMP180;16399;51.686;8.684;2022-10-26T09:09:22;99776.00;;;15.00
29423;BMP180;16399;51.686;8.684;2022-10-26T09:12:48;99772.00;;;14.90
29423;BMP180;16399;51.686;8.684;2022-10-26T09:16:02;99772.00;;;14.90
29423;BMP180;16399;51.686;8.684;2022-10-26T09:22:46;99773.00;;;15.00
29423;BMP180;16399;51.686;8.684;2022-10-26T09:25:50;99770.00;;;15.00
29423;BMP180;16399;51.686;8.684;2022-10-26T09:28:52;99775.00;;;15.20
29423;BMP180;16399;51.686;8.684;2022-10-26T09:31:58;99784.00;;;15.30
29423;BMP180;16399;51.686;8.684;2022-10-26T09:35:09;99772.00;;;15.40
29423;BMP180;16399;51.686;8.684;2022-10-26T09:41:41;99773.00;;;15.80
29423;BMP180;16399;51.686;8.684;2022-10-26T09:44:58;99777.00;;;16.00
29423;BMP180;16399;51.686;8.684;2022-10-26T09:48:00;99782.00;;;16.00
29423;BMP180;16399;51.686;8.684;2022-10-26T09:51:02;99784.00;;;16.00
29423;BMP180;16399;51.686;8.684;2022-10-26T09:54:16;99780.00;;;16.00
29423;BMP180;16399;51.686;8.684;2022-10-26T09:57:13;99773.00;;;15.90
29423;BMP180;16399;51.686;8.684;2022-10-26T10:00:18;99785.00;;;16.00
29423;BMP180;16399;51.686;8.684;2022-10-26T10:03:29;99776.00;;;16.20
29423;BMP180;16399;51.686;8.684;2022-10-26T10:06:31;99778.00;;;16.40
29423;BMP180;16399;51.686;8.684;2022-10-26T10:09:34;99779.00;;;16.60
29423;BMP180;16399;51.686;8.684;2022-10-26T10:12:36;99785.00;;;16.90
29423;BMP180;16399;51.686;8.684;2022-10-26T10:15:38;99786.00;;;17.10
29423;BMP180;16399;51.686;8.684;2022-10-26T10:18:41;99784.00;;;17.10
29423;BMP180;16399;51.686;8.684;2022-10-26T10:21:53;99795.00;;;17.20
29423;BMP180;16399;51.686;8.684;2022-10-26T10:25:02;99802.00;;;17.30
29423;BMP180;16399;51.686;8.684;2022-10-26T10:28:21;99801.00;;;17.40
29423;BMP180;16399;51.686;8.684;2022-10-26T10:31:31;99808.00;;;17.40
29423;BMP180;16399;51.686;8.684;2022-10-26T10:34:34;99823.00;;;17.50
29423;BMP180;16399;51.686;8.684;2022-10-26T10:37:43;99828.00;;;17.50
29423;BMP180;16399;51.686;8.684;2022-10-26T10:40:57;99826.00;;;17.60
29423;BMP180;16399;51.686;8.684;2022-10-26T10:44:05;99830.00;;;17.70
29423;BMP180;16399;51.686;8.684;2022-10-26T10:47:15;99817.00;;;17.80
29423;BMP180;16399;51.686;8.684;2022-10-26T10:50:16;99829.00;;;18.00
29423;BMP180;16399;51.686;8.684;2022-10-26T10:56:52;99822.00;;;18.40
29423;BMP180;16399;51.686;8.684;2022-10-26T11:00:07;99838.00;;;18.60
29423;BMP180;16399;51.686;8.684;2022-10-26T11:03:32;99834.00;;;18.80
29423;BMP180;16399;51.686;8.684;2022-10-26T11:06:31;99843.00;;;18.80
29423;BMP180;16399;51.686;8.684;2022-10-26T11:09:38;99837.00;;;18.90
29423;BMP180;16399;51.686;8.684;2022-10-26T11:12:48;99839.00;;;18.90
29423;BMP180;16399;51.686;8.684;2022-10-26T11:15:51;99849.00;;;18.90
29423;BMP180;16399;51.686;8.684;2022-10-26T11:18:56;99840.00;;;18.90
29423;BMP180;16399;51.686;8.684;2022-10-26T11:21:59;99846.00;;;19.00
29423;BMP180;16399;51.686;8.684;2022-10-26T11:25:26;99855.00;;;19.10
29423;BMP180;16399;51.686;8.684;2022-10-26T11:28:43;99854.00;;;19.10
29423;BMP180;16399;51.686;8.684;2022-10-26T11:31:46;99858.00;;;19.20
29423;BMP180;16399;51.686;8.684;2022-10-26T11:34:57;99855.00;;;19.30
29423;BMP180;16399;51.686;8.684;2022-10-26T11:38:03;99866.00;;;19.40
29423;BMP180;16399;51.686;8.684;2022-10-26T11:44:21;99854.00;;;19.60
29423;BMP180;16399;51.686;8.684;2022-10-26T11:47:31;99865.00;;;19.80
29423;BMP180;16399;51.686;8.684;2022-10-26T11:50:32;99858.00;;;19.90
29423;BMP180;16399;51.686;8.684;2022-10-26T11:53:38;99861.00;;;20.00
29423;BMP180;16399;51.686;8.684;2022-10-26T11:56:44;99858.00;;;20.10
29423;BMP180;16399;51.686;8.684;2022-10-26T12:00:05;99864.00;;;20.10
29423;BMP180;16399;51.686;8.684;2022-10-26T12:03:09;99877.00;;;20.30
29423;BMP180;16399;51.686;8.684;2022-10-26T12:06:13;99881.00;;;20.50
29423;BMP180;16399;51.686;8.684;2022-10-26T12:09:19;99875.00;;;20.60
29423;BMP180;16399;51.686;8.684;2022-10-26T12:12:47;99882.00;;;20.70
29423;BMP180;16399;51.686;8.684;2022-10-26T12:16:01;99883.00;;;20.70
29423;BMP180;16399;51.686;8.684;2022-10-26T12:19:06;99880.00;;;20.80
29423;BMP180;16399;51.686;8.684;2022-10-26T12:22:10;99889.00;;;20.90
29423;BMP180;16399;51.686;8.684;2022-10-26T12:31:41;99883.00;;;21.10
29423;BMP180;16399;51.686;8.684;2022-10-26T12:37:52;99887.00;;;21.10
29423;BMP180;16399;51.686;8.684;2022-10-26T12:50:35;99906.00;;;21.10
29423;BMP180;16399;51.686;8.684;2022-10-26T12:53:38;99917.00;;;21.00
29423;BMP180;16399;51.686;8.684;2022-10-26T12:57:06;99918.00;;;21.00
29423;BMP180;16399;51.686;8.684;2022-10-26T13:00:05;99927.00;;;21.00
29423;BMP180;16399;51.686;8.684;2022-10-26T13:03:12;99928.00;;;20.90
29423;BMP180;16399;51.686;8.684;2022-10-26T13:09:37;99925.00;;;20.90
29423;BMP180;16399;51.686;8.684;2022-10-26T13:12:45;99938.00;;;20.80
29423;BMP180;16399;51.686;8.684;2022-10-26T13:15:55;99942.00;;;20.80
29423;BMP180;16399;51.686;8.684;2022-10-26T13:18:58;99942.00;;;20.80
29423;BMP180;16399;51.686;8.684;2022-10-26T13:22:01;99956.00;;;20.80
29423;BMP180;16399;51.686;8.684;2022-10-26T13:25:05;99952.00;;;20.70
29423;BMP180;16399;51.686;8.684;2022-10-26T13:34:47;99967.00;;;20.20
29423;BMP180;16399;51.686;8.684;2022-10-26T13:37:52;99971.00;;;20.20
29423;BMP180;16399;51.686;8.684;2022-10-26T13:40:59;99961.00;;;20.10
29423;BMP180;16399;51.686;8.684;2022-10-26T13:44:09;99971.00;;;20.10
29423;BMP180;16399;51.686;8.684;2022-10-26T13:47:16;99967.00;;;20.20
29423;BMP180;16399;51.686;8.684;2022-10-26T13:50:30;99972.00;;;20.20
29423;BMP180;16399;51.686;8.684;2022-10-26T13:53:38;99968.00;;;20.30
29423;BMP180;16399;51.686;8.684;2022-10-26T13:56:44;99971.00;;;20.30
29423;BMP180;16399;51.686;8.684;2022-10-26T13:59:46;99973.00;;;20.40
29423;BMP180;16399;51.686;8.684;2022-10-26T14:02:48;99982.00;;;20.40
29423;BMP180;16399;51.686;8.684;2022-10-26T14:05:51;99989.00;;;20.40
29423;BMP180;16399;51.686;8.684;2022-10-26T14:08:56;99988.00;;;20.30
29423;BMP180;16399;51.686;8.684;2022-10-26T14:12:00;99983.00;;;20.30
29423;BMP180;16399;51.686;8.684;2022-10-26T14:15:09;99993.00;;;20.30
29423;BMP180;16399;51.686;8.684;2022-10-26T14:18:14;99993.00;;;20.20
29423;BMP180;16399;51.686;8.684;2022-10-26T14:21:18;99995.00;;;20.20
29423;BMP180;16399;51.686;8.684;2022-10-26T14:24:29;99991.00;;;20.10
29423;BMP180;16399;51.686;8.684;2022-10-26T14:27:37;99985.00;;;20.10
29423;BMP180;16399;51.686;8.684;2022-10-26T14:30:36;99999.00;;;20.10
29423;BMP180;16399;51.686;8.684;2022-10-26T14:33:39;99990.00;;;20.00
29423;BMP180;16399;51.686;8.684;2022-10-26T14:37:01;99991.00;;;20.00
29423;BMP180;16399;51.686;8.684;2022-10-26T14:40:05;99994.00;;;20.00
29423;BMP180;16399;51.686;8.684;2022-10-26T14:43:15;100001.00;;;19.90
29423;BMP180;16399;51.686;8.684;2022-10-26T14:46:17;100002.00;;;19.90
29423;BMP180;16399;51.686;8.684;2022-10-26T14:49:22;100019.00;;;19.80
29423;BMP180;16399;51.686;8.684;2022-10-26T14:52:30;100028.00;;;19.80
29423;BMP180;16399;51.686;8.684;2022-10-26T14:55:42;100026.00;;;19.80
29423;BMP180;16399;51.686;8.684;2022-10-26T14:58:39;100030.00;;;19.70
29423;BMP180;16399;51.686;8.684;2022-10-26T15:01:52;100030.00;;;19.70
29423;BMP180;16399;51.686;8.684;2022-10-26T15:05:15;100038.00;;;19.60
29423;BMP180;16399;51.686;8.684;2022-10-26T15:08:03;100034.00;;;19.60
29423;BMP180;16399;51.686;8.684;2022-10-26T15:11:08;100037.00;;;19.60
29423;BMP180;16399;51.686;8.684;2022-10-26T15:14:11;100038.00;;;19.50
29423;BMP180;16399;51.686;8.684;2022-10-26T15:17:22;100041.00;;;19.50
29423;BMP180;16399;51.686;8.684;2022-10-26T15:20:28;100037.00;;;19.50
29423;BMP180;16399;51.686;8.684;2022-10-26T15:23:31;100049.00;;;19.40
29423;BMP180;16399;51.686;8.684;2022-10-26T15:26:33;100055.00;;;19.30
29423;BMP180;16399;51.686;8.684;2022-10-26T15:29:46;100056.00;;;19.30
29423;BMP180;16399;51.686;8.684;2022-10-26T15:32:49;100059.00;;;19.20
29423;BMP180;16399;51.686;8.684;2022-10-26T15:39:14;100065.00;;;18.90
29423;BMP180;16399;51.686;8.684;2022-10-26T15:42:17;100065.00;;;18.80
29423;BMP180;16399;51.686;8.684;2022-10-26T15:45:24;100078.00;;;18.70
29423;BMP180;16399;51.686;8.684;2022-10-26T15:48:29;100069.00;;;18.60
29423;BMP180;16399;51.686;8.684;2022-10-26T15:51:34;100075.00;;;18.50
29423;BMP180;16399;51.686;8.684;2022-10-26T15:54:36;100080.00;;;18.40
29423;BMP180;16399;51.686;8.684;2022-10-26T15:57:39;100091.00;;;18.30
29423;BMP180;16399;51.686;8.684;2022-10-26T16:00:41;100089.00;;;18.20
29423;BMP180;16399;51.686;8.684;2022-10-26T16:03:44;100088.00;;;18.10
29423;BMP180;16399;51.686;8.684;2022-10-26T16:06:46;100094.00;;;18.00
29423;BMP180;16399;51.686;8.684;2022-10-26T16:09:48;100094.00;;;17.90
29423;BMP180;16399;51.686;8.684;2022-10-26T16:12:51;100104.00;;;17.80
29423;BMP180;16399;51.686;8.684;2022-10-26T16:15:53;100105.00;;;17.80
29423;BMP180;16399;51.686;8.684;2022-10-26T16:18:56;100105.00;;;17.70
29423;BMP180;16399;51.686;8.684;2022-10-26T16:21:59;100121.00;;;17.60
29423;BMP180;16399;51.686;8.684;2022-10-26T16:25:02;100112.00;;;17.60
29423;BMP180;16399;51.686;8.684;2022-10-26T16:28:04;100118.00;;;17.50
29423;BMP180;16399;51.686;8.684;2022-10-26T16:31:13;100118.00;;;17.50
29423;BMP180;16399;51.686;8.684;2022-10-26T16:34:12;100124.00;;;17.40
29423;BMP180;16399;51.686;8.684;2022-10-26T16:37:14;100127.00;;;17.30
29423;BMP180;16399;51.686;8.684;2022-10-26T16:40:16;100134.00;;;17.10
29423;BMP180;16399;51.686;8.684;2022-10-26T16:43:18;100138.00;;;17.00
29423;BMP180;16399;51.686;8.684;2022-10-26T16:46:21;100151.00;;;16.90
29423;BMP180;16399;51.686;8.684;2022-10-26T16:49:23;100145.00;;;16.90
29423;BMP180;16399;51.686;8.684;2022-10-26T16:52:26;100151.00;;;16.80
29423;BMP180;16399;51.686;8.684;2022-10-26T16:55:28;100169.00;;;16.70
29423;BMP180;16399;51.686;8.684;2022-10-26T16:58:30;100170.00;;;16.60
29423;BMP180;16399;51.686;8.684;2022-10-26T17:01:33;100180.00;;;16.50
29423;BMP180;16399;51.686;8.684;2022-10-26T17:04:36;100167.00;;;16.40
29423;BMP180;16399;51.686;8.684;2022-10-26T17:07:38;100183.00;;;16.30
29423;BMP180;16399;51.686;8.684;2022-10-26T17:10:40;100187.00;;;16.20
29423;BMP180;16399;51.686;8.684;2022-10-26T17:13:43;100188.00;;;16.20
29423;BMP180;16399;51.686;8.684;2022-10-26T17:16:45;100191.00;;;16.10
29423;BMP180;16399;51.686;8.684;2022-10-26T17:19:48;100198.00;;;16.10
29423;BMP180;16399;51.686;8.684;2022-10-26T17:22:50;100211.00;;;16.00
29423;BMP180;16399;51.686;8.684;2022-10-26T17:25:52;100214.00;;;15.90
29423;BMP180;16399;51.686;8.684;2022-10-26T17:28:55;100220.00;;;15.70
29423;BMP180;16399;51.686;8.684;2022-10-26T17:31:58;100225.00;;;15.60
29423;BMP180;16399;51.686;8.684;2022-10-26T17:35:00;100229.00;;;15.50
29423;BMP180;16399;51.686;8.684;2022-10-26T17:38:03;100232.00;;;15.40
29423;BMP180;16399;51.686;8.684;2022-10-26T17:41:07;100250.00;;;15.30
29423;BMP180;16399;51.686;8.684;2022-10-26T17:44:10;100255.00;;;15.30
29423;BMP180;16399;51.686;8.684;2022-10-26T17:47:12;100254.00;;;15.40
29423;BMP180;16399;51.686;8.684;2022-10-26T17:50:14;100262.00;;;15.40
29423;BMP180;16399;51.686;8.684;2022-10-26T17:53:16;100264.00;;;15.40
29423;BMP180;16399;51.686;8.684;2022-10-26T17:56:20;100267.00;;;15.50
29423;BMP180;16399;51.686;8.684;2022-10-26T17:59:23;100267.00;;;15.60
29423;BMP180;16399;51.686;8.684;2022-10-26T18:02:25;100281.00;;;15.70
29423;BMP180;16399;51.686;8.684;2022-10-26T18:05:27;100287.00;;;15.70
29423;BMP180;16399;51.686;8.684;2022-10-26T18:08:32;100291.00;;;15.80
29423;BMP180;16399;51.686;8.684;2022-10-26T18:11:34;100290.00;;;15.90
29423;BMP180;16399;51.686;8.684;2022-10-26T18:14:37;100286.00;;;15.90
29423;BMP180;16399;51.686;8.684;2022-10-26T18:17:39;100293.00;;;15.90
29423;BMP180;16399;51.686;8.684;2022-10-26T18:20:41;100292.00;;;15.90
29423;BMP180;16399;51.686;8.684;2022-10-26T18:23:44;100309.00;;;15.90
29423;BMP180;16399;51.686;8.684;2022-10-26T18:26:46;100306.00;;;16.00
29423;BMP180;16399;51.686;8.684;2022-10-26T18:29:49;100321.00;;;16.00
29423;BMP180;16399;51.686;8.684;2022-10-26T18:32:51;100330.00;;;16.00
29423;BMP180;16399;51.686;8.684;2022-10-26T18:35:59;100323.00;;;16.00
29423;BMP180;16399;51.686;8.684;2022-10-26T18:39:01;100342.00;;;16.00
29423;BMP180;16399;51.686;8.684;2022-10-26T18:42:03;100342.00;;;16.00
29423;BMP180;16399;51.686;8.684;2022-10-26T18:45:06;100343.00;;;16.00
29423;BMP180;16399;51.686;8.684;2022-10-26T18:48:08;100344.00;;;16.00
29423;BMP180;16399;51.686;8.684;2022-10-26T18:51:13;100343.00;;;16.00
29423;BMP180;16399;51.686;8.684;2022-10-26T18:54:16;100351.00;;;16.00
29423;BMP180;16399;51.686;8.684;2022-10-26T18:57:19;100350.00;;;16.00
29423;BMP180;16399;51.686;8.684;2022-10-26T19:00:23;100355.00;;;16.00
29423;BMP180;16399;51.686;8.684;2022-10-26T19:03:25;100359.00;;;16.00
29423;BMP180;16399;51.686;8.684;2022-10-26T19:06:30;100361.00;;;16.00
29423;BMP180;16399;51.686;8.684;2022-10-26T19:09:32;100368.00;;;16.00
29423;BMP180;16399;51.686;8.684;2022-10-26T19:12:35;100373.00;;;15.90
29423;BMP180;16399;51.686;8.684;2022-10-26T19:15:37;100372.00;;;15.90
29423;BMP180;16399;51.686;8.684;2022-10-26T19:18:39;100388.00;;;15.90